createdAt,value
2019-02-17T00:01:42.529Z,91.37
2019-02-17T00:04:11.580Z,94.45
2019-02-17T00:06:40.642Z,97.33
2019-02-17T00:09:11.868Z,98.22
2019-02-17T00:11:40.838Z,86.02
2019-02-17T00:14:09.978Z,85.55
2019-02-17T00:16:39.057Z,93.72
2019-02-17T00:19:07.978Z,104.10
2019-02-17T00:21:36.913Z,91.22
2019-02-17T00:24:06.006Z,92.85
2019-02-17T00:26:34.960Z,91.00
2019-02-17T00:29:03.975Z,88.60
2019-02-17T00:31:33.082Z,99.15
2019-02-17T00:34:02.105Z,96.30
2019-02-17T00:36:31.030Z,88.78
2019-02-17T00:39:00.028Z,95.23
2019-02-17T00:41:29.058Z,99.10
2019-02-17T00:43:57.891Z,91.20
2019-02-17T00:46:26.873Z,85.45
2019-02-17T00:48:55.815Z,101.07
2019-02-17T00:51:24.684Z,100.10
2019-02-17T00:53:53.582Z,90.97
2019-02-17T00:56:22.539Z,82.90
2019-02-17T00:58:51.476Z,85.50
2019-02-17T01:01:22.673Z,78.20
2019-02-17T01:03:51.552Z,91.37
2019-02-17T01:06:20.911Z,91.70
2019-02-17T01:08:50.236Z,90.32
2019-02-17T01:11:19.572Z,92.75
2019-02-17T01:13:48.415Z,90.05
2019-02-17T01:16:17.398Z,98.60
2019-02-17T01:18:46.409Z,91.57
2019-02-17T01:21:15.840Z,81.20
2019-02-17T01:23:44.882Z,75.80
2019-02-17T01:26:13.878Z,80.35
2019-02-17T01:28:44.877Z,87.10
2019-02-17T01:31:13.967Z,79.05
2019-02-17T01:33:43.688Z,81.25
2019-02-17T01:36:12.641Z,84.67
2019-02-17T01:38:44.801Z,82.20
2019-02-17T01:41:13.836Z,80.17
2019-02-17T01:43:42.684Z,77.90
2019-02-17T01:46:11.959Z,75.62
2019-02-17T01:48:40.988Z,77.50
2019-02-17T01:51:09.977Z,72.22
2019-02-17T01:53:38.933Z,82.95
2019-02-17T01:56:07.788Z,76.40
2019-02-17T01:58:36.731Z,81.75
2019-02-17T02:01:05.765Z,85.90
2019-02-17T02:03:35.317Z,79.27
2019-02-17T02:06:04.464Z,84.15
2019-02-17T02:08:33.475Z,79.45
2019-02-17T02:11:02.892Z,84.90
2019-02-17T02:13:32.208Z,81.27
2019-02-17T02:16:01.204Z,84.22
2019-02-17T02:18:30.201Z,101.38
2019-02-17T02:20:59.129Z,85.40
2019-02-17T02:23:28.108Z,84.60
2019-02-17T02:25:57.164Z,77.17
2019-02-17T02:28:26.503Z,83.10
2019-02-17T02:30:55.808Z,78.45
2019-02-17T02:33:25.035Z,86.10
2019-02-17T02:35:53.953Z,88.35
2019-02-17T02:38:22.847Z,82.67
2019-02-17T02:40:52.299Z,83.42
2019-02-17T02:43:21.380Z,80.72
2019-02-17T02:45:50.302Z,81.90
2019-02-17T02:48:19.229Z,89.42
2019-02-17T02:50:48.164Z,81.60
2019-02-17T02:53:17.308Z,81.75
2019-02-17T02:55:46.293Z,89.25
2019-02-17T02:58:15.216Z,79.72
2019-02-17T03:00:44.173Z,85.85
2019-02-17T03:03:13.164Z,79.53
2019-02-17T03:05:51.416Z,76.15
2019-02-17T03:08:20.424Z,82.40
2019-02-17T03:10:49.358Z,78.25
2019-02-17T03:13:18.248Z,79.30
2019-02-17T03:15:47.206Z,78.90
2019-02-17T03:18:16.058Z,94.95
2019-02-17T03:20:45.232Z,92.05
2019-02-17T03:23:14.081Z,86.45
2019-02-17T03:25:45.112Z,87.20
2019-02-17T03:28:13.985Z,78.25
2019-02-17T03:30:42.837Z,75.05
2019-02-17T03:33:13.145Z,80.97
2019-02-17T03:35:42.102Z,76.62
2019-02-17T03:38:11.236Z,79.17
2019-02-17T03:40:40.235Z,81.55
2019-02-17T03:43:09.301Z,79.55
2019-02-17T03:45:38.352Z,81.75
2019-02-17T03:48:07.537Z,101.00
2019-02-17T03:50:36.596Z,103.12
2019-02-17T03:53:05.596Z,85.85
2019-02-17T03:55:34.897Z,81.12
2019-02-17T03:58:03.958Z,81.37
2019-02-17T04:00:32.804Z,72.80
2019-02-17T04:03:01.887Z,74.05
2019-02-17T04:05:32.312Z,87.88
2019-02-17T04:08:01.217Z,86.67
2019-02-17T04:10:30.196Z,85.53
2019-02-17T04:12:59.224Z,80.60
2019-02-17T04:15:28.188Z,74.25
2019-02-17T04:17:57.177Z,82.70
2019-02-17T04:20:26.305Z,69.95
2019-02-17T04:22:55.328Z,79.50
2019-02-17T04:25:24.255Z,74.22
2019-02-17T04:27:53.186Z,83.47
2019-02-17T04:30:29.296Z,97.92
2019-02-17T04:32:52.876Z,99.35
2019-02-17T04:35:21.766Z,88.20
2019-02-17T04:37:50.615Z,80.73
2019-02-17T04:40:19.615Z,84.30
2019-02-17T04:42:48.663Z,70.92
2019-02-17T04:45:17.596Z,70.72
2019-02-17T04:47:46.553Z,72.10
2019-02-17T04:50:15.476Z,66.33
2019-02-17T04:52:44.415Z,67.27
2019-02-17T04:55:13.435Z,65.87
2019-02-17T04:57:42.366Z,68.42
2019-02-17T05:00:11.435Z,63.92
2019-02-17T05:02:40.760Z,62.98
2019-02-17T05:05:09.774Z,63.70
2019-02-17T05:07:39.071Z,69.30
2019-02-17T05:10:08.283Z,65.40
2019-02-17T05:12:37.245Z,70.67
2019-02-17T05:15:06.336Z,62.93
2019-02-17T05:17:35.675Z,68.60
2019-02-17T05:20:05.304Z,75.60
2019-02-17T05:22:34.195Z,83.53
2019-02-17T05:25:03.164Z,65.97
2019-02-17T05:27:32.016Z,61.63
2019-02-17T05:30:00.960Z,73.97
2019-02-17T05:32:29.996Z,68.25
2019-02-17T05:34:59.177Z,63.70
2019-02-17T05:37:28.322Z,62.50
2019-02-17T05:39:57.182Z,63.05
2019-02-17T05:42:26.033Z,56.48
2019-02-17T05:44:55.310Z,57.83
2019-02-17T05:47:24.215Z,57.30
2019-02-17T05:49:53.405Z,57.48
2019-02-17T05:52:22.421Z,61.85
2019-02-17T05:54:51.301Z,55.25
2019-02-17T05:57:20.248Z,58.58
2019-02-17T05:59:49.101Z,61.85
2019-02-17T06:02:18.070Z,63.13
2019-02-17T06:04:47.000Z,63.75
2019-02-17T06:07:15.859Z,64.82
2019-02-17T06:09:45.133Z,63.47
2019-02-17T06:12:13.969Z,56.15
2019-02-17T06:14:42.964Z,56.17
2019-02-17T06:17:11.816Z,56.80
2019-02-17T06:19:40.701Z,55.25
2019-02-17T06:22:09.649Z,60.23
2019-02-17T06:24:38.576Z,57.53
2019-02-17T06:27:07.475Z,55.55
2019-02-17T06:29:36.472Z,52.45
2019-02-17T06:32:05.345Z,53.52
2019-02-17T06:34:34.528Z,58.87
2019-02-17T06:37:03.460Z,54.08
2019-02-17T06:39:32.373Z,52.33
2019-02-17T06:42:01.212Z,55.15
2019-02-17T06:44:30.064Z,53.05
2019-02-17T06:47:01.802Z,54.10
2019-02-17T06:49:30.994Z,50.08
2019-02-17T06:51:59.954Z,51.28
2019-02-17T06:54:28.916Z,51.55
2019-02-17T06:57:17.241Z,53.83
2019-02-17T06:59:46.108Z,53.35
2019-02-17T07:02:15.027Z,50.20
2019-02-17T07:05:21.563Z,50.13
2019-02-17T07:07:50.835Z,52.78
2019-02-17T07:10:19.726Z,53.07
2019-02-17T07:12:48.652Z,50.40
2019-02-17T07:15:17.716Z,47.75
2019-02-17T07:17:46.949Z,48.80
2019-02-17T07:20:15.826Z,50.10
2019-02-17T07:22:44.710Z,46.33
2019-02-17T07:25:13.723Z,46.08
2019-02-17T07:27:43.008Z,47.27
2019-02-17T07:30:12.091Z,46.08
2019-02-17T07:32:41.033Z,61.73
2019-02-17T07:35:10.064Z,44.63
2019-02-17T07:37:38.928Z,45.20
2019-02-17T07:40:08.006Z,44.48
2019-02-17T07:42:36.958Z,40.15
2019-02-17T07:45:06.029Z,44.90
2019-02-17T07:47:34.982Z,37.90
2019-02-17T07:50:04.100Z,38.10
2019-02-17T07:52:34.361Z,41.95
2019-02-17T07:55:03.422Z,42.73
2019-02-17T07:57:32.336Z,41.90
2019-02-17T08:00:01.327Z,39.00
2019-02-17T08:02:30.252Z,49.58
2019-02-17T08:04:59.140Z,45.45
2019-02-17T08:07:28.080Z,48.35
2019-02-17T08:09:57.026Z,42.13
2019-02-17T08:12:25.913Z,59.10
2019-02-17T08:14:54.852Z,47.25
2019-02-17T08:17:23.783Z,52.38
2019-02-17T08:19:52.652Z,58.35
2019-02-17T08:22:21.597Z,48.85
2019-02-17T08:24:50.488Z,42.83
2019-02-17T08:27:19.416Z,43.87
2019-02-17T08:29:48.440Z,42.60
2019-02-17T08:32:17.688Z,41.92
2019-02-17T08:34:47.042Z,39.40
2019-02-17T08:37:16.165Z,39.40
2019-02-17T08:39:45.250Z,37.83
2019-02-17T08:42:14.586Z,34.13
2019-02-17T08:44:43.604Z,31.80
2019-02-17T08:47:12.551Z,30.05
2019-02-17T08:49:41.528Z,28.95
2019-02-17T08:52:10.363Z,30.70
2019-02-17T08:54:39.375Z,27.27
2019-02-17T08:57:08.236Z,29.25
2019-02-17T08:59:37.105Z,27.45
2019-02-17T09:02:06.464Z,28.32
2019-02-17T09:04:36.264Z,26.95
2019-02-17T09:07:06.432Z,29.53
2019-02-17T09:09:35.525Z,29.60
2019-02-17T09:12:04.870Z,28.92
2019-02-17T09:14:33.746Z,30.62
2019-02-17T09:17:02.702Z,29.18
2019-02-17T09:19:31.773Z,30.32
2019-02-17T09:22:00.709Z,32.63
2019-02-17T09:24:29.733Z,28.75
2019-02-17T09:26:58.649Z,28.05
2019-02-17T09:29:27.540Z,29.35
2019-02-17T09:31:56.542Z,27.82
2019-02-17T09:34:25.496Z,27.07
2019-02-17T09:36:54.452Z,27.67
2019-02-17T09:39:23.512Z,27.10
2019-02-17T09:41:52.472Z,25.35
2019-02-17T09:44:21.521Z,26.68
2019-02-17T09:46:50.592Z,25.00
2019-02-17T09:49:19.561Z,25.25
2019-02-17T09:51:48.531Z,25.10
2019-02-17T09:54:17.468Z,24.57
2019-02-17T09:56:46.436Z,22.95
2019-02-17T09:59:15.302Z,23.62
2019-02-17T10:01:44.323Z,24.87
2019-02-17T10:04:13.312Z,23.62
2019-02-17T10:06:42.225Z,23.93
2019-02-17T10:09:11.184Z,23.83
2019-02-17T10:11:40.196Z,23.80
2019-02-17T10:14:09.103Z,22.48
2019-02-17T10:16:38.072Z,22.70
2019-02-17T10:19:06.944Z,22.83
2019-02-17T10:21:35.928Z,20.27
2019-02-17T10:24:04.948Z,22.07
2019-02-17T10:26:33.840Z,20.35
2019-02-17T10:29:02.889Z,22.10
2019-02-17T10:31:31.941Z,21.77
2019-02-17T10:34:00.983Z,24.45
2019-02-17T10:36:29.852Z,23.92
2019-02-17T10:38:58.981Z,20.55
2019-02-17T10:41:28.001Z,19.35
2019-02-17T10:43:57.017Z,21.35
2019-02-17T10:46:25.916Z,22.10
2019-02-17T10:48:54.915Z,20.35
2019-02-17T10:51:23.888Z,21.07
2019-02-17T10:53:52.835Z,19.73
2019-02-17T10:56:21.786Z,20.25
2019-02-17T10:58:51.128Z,19.27
2019-02-17T11:01:20.088Z,18.57
2019-02-17T11:04:06.258Z,19.73
2019-02-17T11:06:35.184Z,19.20
2019-02-17T11:09:09.963Z,17.70
2019-02-17T11:11:38.900Z,18.03
2019-02-17T11:14:07.920Z,18.00
2019-02-17T11:16:36.779Z,18.73
2019-02-17T11:19:05.805Z,19.32
2019-02-17T11:21:35.086Z,19.87
2019-02-17T11:24:04.044Z,16.73
2019-02-17T11:26:32.898Z,17.17
2019-02-17T11:29:01.831Z,17.70
2019-02-17T11:31:30.884Z,19.00
2019-02-17T11:33:59.880Z,18.27
2019-02-17T11:36:28.828Z,16.15
2019-02-17T11:38:57.810Z,16.27
2019-02-17T11:41:27.559Z,18.17
2019-02-17T11:43:56.559Z,16.65
2019-02-17T11:46:25.516Z,16.23
2019-02-17T11:48:54.720Z,17.27
2019-02-17T11:51:23.559Z,16.63
2019-02-17T11:53:52.531Z,18.02
2019-02-17T11:56:21.542Z,18.98
2019-02-17T11:58:50.479Z,17.37
2019-02-17T12:01:19.544Z,17.67
2019-02-17T12:03:48.506Z,18.53
2019-02-17T12:06:17.529Z,15.90
2019-02-17T12:08:48.036Z,16.60
2019-02-17T12:11:17.028Z,16.20
2019-02-17T12:13:46.091Z,17.55
2019-02-17T12:16:15.115Z,16.75
2019-02-17T12:18:44.122Z,16.27
2019-02-17T12:21:38.421Z,17.63
2019-02-17T12:24:11.617Z,18.05
2019-02-17T12:27:06.120Z,15.73
2019-02-17T12:29:40.516Z,18.27
2019-02-17T12:32:09.453Z,16.50
2019-02-17T12:34:38.341Z,14.83
2019-02-17T12:37:07.280Z,15.20
2019-02-17T12:39:36.233Z,15.80
2019-02-17T12:42:05.264Z,16.53
2019-02-17T12:44:35.659Z,16.67
2019-02-17T12:47:04.930Z,15.30
2019-02-17T12:49:34.244Z,15.68
2019-02-17T12:52:03.269Z,14.93
2019-02-17T12:54:32.212Z,15.33
2019-02-17T12:57:01.622Z,14.90
2019-02-17T12:59:30.470Z,14.87
2019-02-17T13:02:00.084Z,14.73
2019-02-17T13:04:29.020Z,14.10
2019-02-17T13:06:57.938Z,14.20
2019-02-17T13:09:29.848Z,15.65
2019-02-17T13:11:58.817Z,14.45
2019-02-17T13:14:27.956Z,16.82
2019-02-17T13:16:57.168Z,15.97
2019-02-17T13:19:26.188Z,16.55
2019-02-17T13:21:55.160Z,15.40
2019-02-17T13:24:24.110Z,14.60
2019-02-17T13:26:53.108Z,15.08
2019-02-17T13:29:22.047Z,16.10
2019-02-17T13:31:50.943Z,14.37
2019-02-17T13:34:20.129Z,15.33
2019-02-17T13:36:49.064Z,15.05
2019-02-17T13:39:17.932Z,14.07
2019-02-17T13:41:47.043Z,16.00
2019-02-17T13:44:16.669Z,13.65
2019-02-17T13:46:46.015Z,13.30
2019-02-17T13:49:15.113Z,15.08
2019-02-17T13:51:45.580Z,14.17
2019-02-17T13:54:14.485Z,14.40
2019-02-17T13:56:43.456Z,14.45
2019-02-17T13:59:12.416Z,14.90
2019-02-17T14:01:41.356Z,13.40
2019-02-17T14:04:10.396Z,14.38
2019-02-17T14:06:39.436Z,13.70
2019-02-17T14:09:08.870Z,14.68
2019-02-17T14:11:37.893Z,13.32
2019-02-17T14:14:06.750Z,13.55
2019-02-17T14:16:35.605Z,14.35
2019-02-17T14:19:04.590Z,14.68
2019-02-17T14:21:33.470Z,15.08
2019-02-17T14:24:03.820Z,15.58
2019-02-17T14:26:33.035Z,15.32
2019-02-17T14:29:04.205Z,15.75
2019-02-17T14:31:33.196Z,14.93
2019-02-17T14:34:02.248Z,13.75
2019-02-17T14:36:31.125Z,14.70
2019-02-17T14:38:59.988Z,14.95
2019-02-17T14:41:28.985Z,16.30
2019-02-17T14:43:57.832Z,16.07
2019-02-17T14:46:26.784Z,15.53
2019-02-17T14:48:55.681Z,15.72
2019-02-17T14:51:24.580Z,17.87
2019-02-17T14:53:53.513Z,17.23
2019-02-17T14:56:22.556Z,17.65
2019-02-17T14:58:56.110Z,17.10
2019-02-17T15:01:25.213Z,17.82
2019-02-17T15:03:56.191Z,17.47
2019-02-17T15:06:25.245Z,16.77
2019-02-17T15:08:54.339Z,16.05
2019-02-17T15:11:23.296Z,16.93
2019-02-17T15:13:55.369Z,17.05
2019-02-17T15:16:24.328Z,17.87
2019-02-17T15:18:55.667Z,17.50
2019-02-17T15:21:24.612Z,17.32
2019-02-17T15:23:53.548Z,15.98
2019-02-17T15:26:22.595Z,16.17
2019-02-17T15:28:51.750Z,16.45
2019-02-17T15:31:20.820Z,17.98
2019-02-17T15:33:49.962Z,16.47
2019-02-17T15:36:18.879Z,18.12
2019-02-17T15:38:49.279Z,15.78
2019-02-17T15:41:19.808Z,17.47
2019-02-17T15:43:48.788Z,15.20
2019-02-17T15:46:17.672Z,17.27
2019-02-17T15:48:46.568Z,17.07
2019-02-17T15:51:15.564Z,17.97
2019-02-17T15:53:44.506Z,15.95
2019-02-17T15:56:13.424Z,16.00
2019-02-17T15:58:45.101Z,16.07
2019-02-17T16:01:14.264Z,15.83
2019-02-17T16:03:44.941Z,17.77
2019-02-17T16:06:15.362Z,19.23
2019-02-17T16:08:44.245Z,18.87
2019-02-17T16:11:13.159Z,15.72
2019-02-17T16:13:42.142Z,15.65
2019-02-17T16:16:11.123Z,16.12
2019-02-17T16:18:40.447Z,19.45
2019-02-17T16:21:09.329Z,18.30
2019-02-17T16:23:38.261Z,18.02
2019-02-17T16:26:09.564Z,17.60
2019-02-17T16:28:38.452Z,18.23
2019-02-17T16:31:07.329Z,17.92
2019-02-17T16:33:36.260Z,18.95
2019-02-17T16:36:05.248Z,18.55
2019-02-17T16:38:34.136Z,21.65
2019-02-17T16:41:03.055Z,20.10
2019-02-17T16:43:32.011Z,18.90
2019-02-17T16:46:00.953Z,21.00
2019-02-17T16:48:29.952Z,20.65
2019-02-17T16:51:00.941Z,20.55
2019-02-17T16:53:29.636Z,21.37
2019-02-17T16:55:58.624Z,21.05
2019-02-17T16:58:27.668Z,20.10
2019-02-17T17:00:56.710Z,23.00
2019-02-17T17:03:26.637Z,25.23
2019-02-17T17:05:55.708Z,25.68
2019-02-17T17:08:24.803Z,23.57
2019-02-17T17:10:53.779Z,24.77
2019-02-17T17:13:22.803Z,22.50
2019-02-17T17:15:51.837Z,22.58
2019-02-17T17:18:20.756Z,24.55
2019-02-17T17:20:49.714Z,24.05
2019-02-17T17:23:18.708Z,24.45
2019-02-17T17:25:47.763Z,23.60
2019-02-17T17:28:16.710Z,24.37
2019-02-17T17:30:45.649Z,21.20
2019-02-17T17:33:15.182Z,22.67
2019-02-17T17:35:44.228Z,23.05
2019-02-17T17:38:13.133Z,24.60
2019-02-17T17:40:42.313Z,21.75
2019-02-17T17:43:11.163Z,24.25
2019-02-17T17:45:40.039Z,23.15
2019-02-17T17:48:08.949Z,22.25
2019-02-17T17:50:37.847Z,24.00
2019-02-17T17:53:06.834Z,25.85
2019-02-17T17:55:35.858Z,23.32
2019-02-17T17:58:05.141Z,24.98
2019-02-17T18:00:34.996Z,25.48
2019-02-17T18:03:04.392Z,24.00
2019-02-17T18:05:33.449Z,23.98
2019-02-17T18:08:02.525Z,27.60
2019-02-17T18:10:31.537Z,26.30
2019-02-17T18:13:01.060Z,26.23
2019-02-17T18:15:31.275Z,29.92
2019-02-17T18:18:00.168Z,34.43
2019-02-17T18:20:29.151Z,37.98
2019-02-17T18:22:58.056Z,41.17
2019-02-17T18:25:27.021Z,41.65
2019-02-17T18:27:55.962Z,44.15
2019-02-17T18:30:26.249Z,40.28
2019-02-17T18:32:55.152Z,41.95
2019-02-17T18:35:24.100Z,42.08
2019-02-17T18:37:53.015Z,41.28
2019-02-17T18:40:22.012Z,38.88
2019-02-17T18:42:51.028Z,43.30
2019-02-17T18:45:19.963Z,39.90
2019-02-17T18:47:49.007Z,38.10
2019-02-17T18:50:18.025Z,36.80
2019-02-17T18:52:47.212Z,34.03
2019-02-17T18:55:16.297Z,35.47
2019-02-17T18:57:49.897Z,35.17
2019-02-17T19:00:17.773Z,33.98
2019-02-17T19:02:46.773Z,36.23
2019-02-17T19:05:15.779Z,40.25
2019-02-17T19:07:44.752Z,39.80
2019-02-17T19:10:14.112Z,34.85
2019-02-17T19:12:43.263Z,36.53
2019-02-17T19:15:13.392Z,36.20
2019-02-17T19:17:42.311Z,37.35
2019-02-17T19:20:14.167Z,34.30
2019-02-17T19:22:43.108Z,34.25
2019-02-17T19:25:12.527Z,34.65
2019-02-17T19:27:41.420Z,36.00
2019-02-17T19:30:12.635Z,36.05
2019-02-17T19:32:41.760Z,39.45
2019-02-17T19:35:13.259Z,38.88
2019-02-17T19:37:43.552Z,44.93
2019-02-17T19:40:13.983Z,49.73
2019-02-17T19:42:45.593Z,49.70
2019-02-17T19:45:14.688Z,48.15
2019-02-17T19:47:43.737Z,54.55
2019-02-17T19:50:12.913Z,50.05
2019-02-17T19:52:41.912Z,51.37
2019-02-17T19:55:10.949Z,47.27
2019-02-17T19:57:40.552Z,48.50
2019-02-17T20:00:12.164Z,52.35
2019-02-17T20:03:06.533Z,54.05
2019-02-17T20:05:41.045Z,49.50
2019-02-17T20:08:09.963Z,49.83
2019-02-17T20:10:39.005Z,49.53
2019-02-17T20:13:08.573Z,47.45
2019-02-17T20:15:37.808Z,42.45
2019-02-17T20:18:06.833Z,42.40
2019-02-17T20:20:36.101Z,41.18
2019-02-17T20:23:04.949Z,40.52
2019-02-17T20:25:33.816Z,42.45
2019-02-17T20:28:02.790Z,41.60
2019-02-17T20:30:31.744Z,42.90
2019-02-17T20:33:00.768Z,45.15
2019-02-17T20:35:30.000Z,45.03
2019-02-17T20:37:59.004Z,46.35
2019-02-17T20:40:28.012Z,45.52
2019-02-17T20:42:56.885Z,55.55
2019-02-17T20:45:26.308Z,47.38
2019-02-17T20:47:57.663Z,47.25
2019-02-17T20:50:29.542Z,46.75
2019-02-17T20:52:58.967Z,48.92
2019-02-17T20:55:27.910Z,46.28
2019-02-17T20:57:56.924Z,46.05
2019-02-17T21:00:27.700Z,41.25
2019-02-17T21:02:56.960Z,43.20
2019-02-17T21:05:26.028Z,42.58
2019-02-17T21:07:54.976Z,43.95
2019-02-17T21:10:23.934Z,40.83
2019-02-17T21:12:52.965Z,43.20
2019-02-17T21:15:22.304Z,40.03
2019-02-17T21:17:51.304Z,41.88
2019-02-17T21:20:22.445Z,41.00
2019-02-17T21:22:53.024Z,43.40
2019-02-17T21:25:22.186Z,42.27
2019-02-17T21:27:51.260Z,41.45
2019-02-17T21:30:20.285Z,42.43
2019-02-17T21:32:49.343Z,44.08
2019-02-17T21:35:19.292Z,42.23
2019-02-17T21:37:49.108Z,42.10
2019-02-17T21:40:18.498Z,45.55
2019-02-17T21:42:49.563Z,43.95
2019-02-17T21:45:18.469Z,44.60
2019-02-17T21:47:49.573Z,43.13
2019-02-17T21:50:18.622Z,43.75
2019-02-17T21:52:47.455Z,46.45
2019-02-17T21:55:16.472Z,43.78
2019-02-17T21:57:45.935Z,46.05
2019-02-17T22:00:16.713Z,46.55
2019-02-17T22:02:45.739Z,46.18
2019-02-17T22:05:15.025Z,46.60
2019-02-17T22:07:44.040Z,44.88
2019-02-17T22:10:13.544Z,43.48
2019-02-17T22:12:42.579Z,44.18
2019-02-17T22:15:13.333Z,46.35
2019-02-17T22:17:42.567Z,46.20
2019-02-17T22:20:12.209Z,45.38
2019-02-17T22:22:41.253Z,46.70
2019-02-17T22:25:10.482Z,49.23
2019-02-17T22:27:40.111Z,47.67
2019-02-17T22:30:09.432Z,46.50
2019-02-17T22:32:38.437Z,49.05
2019-02-17T22:35:07.487Z,45.55
2019-02-17T22:37:38.644Z,49.42
2019-02-17T22:40:08.329Z,48.60
2019-02-17T22:42:37.185Z,47.65
2019-02-17T22:45:06.863Z,47.50
2019-02-17T22:47:35.763Z,48.60
2019-02-17T22:50:08.217Z,48.33
2019-02-17T22:52:37.716Z,48.70
2019-02-17T22:55:07.774Z,49.73
2019-02-17T22:57:36.809Z,45.75
2019-02-17T23:00:24.649Z,46.40
2019-02-17T23:02:53.712Z,48.48
2019-02-17T23:05:22.738Z,47.43
2019-02-17T23:07:51.680Z,46.90
2019-02-17T23:10:23.840Z,50.23
2019-02-17T23:12:52.859Z,51.63
2019-02-17T23:15:21.900Z,50.30
2019-02-17T23:17:50.833Z,52.83
2019-02-17T23:20:20.233Z,47.40
2019-02-17T23:22:49.239Z,47.98
2019-02-17T23:25:18.550Z,52.57
2019-02-17T23:27:50.372Z,50.43
2019-02-17T23:30:26.337Z,47.55
2019-02-17T23:32:55.288Z,45.65
2019-02-17T23:35:24.952Z,48.33
2019-02-17T23:37:53.858Z,46.75
2019-02-17T23:40:22.815Z,47.93
2019-02-17T23:42:51.744Z,45.50
2019-02-17T23:45:20.862Z,48.60
2019-02-17T23:47:49.801Z,47.65
2019-02-17T23:50:18.834Z,46.92
2019-02-17T23:52:48.154Z,47.05
2019-02-17T23:55:17.147Z,47.57
2019-02-17T23:57:46.064Z,49.55
